Time;durP1;ratioP1;P1;durP2;ratioP2;P2;SDS_P1;SDS_P2;PMS_P1;PMS_P2;Temp;Humidity;BMP_temperature;BMP_pressure;BME280_temperature;BME280_humidity;BME280_pressure;Samples;Min_cycle;Max_cycle;Signal;HPM_P1;HPM_P2
2020/12/02 00:01:21;;;;;;;25.00;12.18;;;;;;;3.67;65.73;101857.83;1767562;81;21351;-59
2020/12/02 00:04:26;;;;;;;20.27;10.75;;;;;;;3.55;65.99;101856.37;1767364;81;21401;-59
2020/12/02 00:07:31;;;;;;;18.48;10.68;;;;;;;3.53;66.26;101850.17;1755394;81;21389;-59
2020/12/02 00:10:37;;;;;;;21.52;10.43;;;;;;;3.55;66.25;101857.22;1707353;82;21486;-60
2020/12/02 00:13:46;;;;;;;19.35;11.45;;;;;;;3.55;66.34;101859.08;1680998;85;21201;-59
2020/12/02 00:16:53;;;;;;;17.10;10.53;;;;;;;3.58;66.43;101861.59;1708294;84;21227;-59
2020/12/02 00:19:58;;;;;;;18.80;11.25;;;;;;;3.50;66.27;101863.90;1681159;85;21377;-59
2020/12/02 00:23:04;;;;;;;16.05;10.70;;;;;;;3.48;66.50;101855.88;1708386;84;21185;-59
2020/12/02 00:26:09;;;;;;;20.15;10.82;;;;;;;3.46;66.58;101865.03;1678854;85;21366;-59
2020/12/02 00:29:15;;;;;;;16.17;10.50;;;;;;;3.46;66.69;101857.80;1708390;84;21214;-59
2020/12/02 00:32:41;;;;;;;17.00;10.25;;;;;;;3.42;66.96;101869.80;1680826;85;21335;-59
2020/12/02 00:35:48;;;;;;;22.87;11.35;;;;;;;3.39;66.79;101868.63;1708384;84;21235;-59
2020/12/02 00:38:54;;;;;;;17.40;10.88;;;;;;;3.27;67.11;101866.66;1681030;85;21284;-59
2020/12/02 00:42:01;;;;;;;17.37;10.28;;;;;;;3.31;67.60;101861.94;1708119;84;21247;-59
2020/12/02 00:45:06;;;;;;;18.98;10.38;;;;;;;3.40;67.72;101867.66;1680672;85;21224;-59
2020/12/02 00:48:13;;;;;;;17.45;10.50;;;;;;;3.45;67.40;101862.84;1708554;84;21387;-59
2020/12/02 00:51:21;;;;;;;16.57;10.08;;;;;;;3.44;67.62;101870.55;1671260;85;21224;-59
2020/12/02 00:54:28;;;;;;;16.95;10.18;;;;;;;3.52;67.54;101871.45;1708445;84;21279;-59
2020/12/02 00:57:38;;;;;;;17.73;10.28;;;;;;;3.51;67.25;101861.56;1681328;85;21802;-59
2020/12/02 01:00:49;;;;;;;17.87;10.85;;;;;;;3.39;67.18;101865.92;1708061;84;21384;-59
2020/12/02 01:03:56;;;;;;;22.70;10.60;;;;;;;3.37;67.69;101865.14;1680834;85;21201;-59
2020/12/02 01:07:03;;;;;;;18.35;10.58;;;;;;;3.46;67.80;101863.68;1704314;84;21197;-59
2020/12/02 01:10:10;;;;;;;18.85;11.53;;;;;;;3.58;67.66;101857.53;1697348;84;21339;-60
2020/12/02 01:13:16;;;;;;;16.85;9.20;;;;;;;3.66;67.49;101856.57;1740225;82;21812;-60
2020/12/02 01:16:25;;;;;;;16.70;10.35;;;;;;;3.69;67.35;101851.84;1740176;82;21225;-60
2020/12/02 01:19:40;;;;;;;16.57;10.08;;;;;;;3.67;67.15;101849.70;1739376;82;21377;-60
2020/12/02 01:22:47;;;;;;;15.53;9.10;;;;;;;3.65;67.05;101847.56;1739729;82;21188;-60
2020/12/02 01:25:52;;;;;;;20.37;11.03;;;;;;;3.69;67.08;101843.72;1740172;82;21225;-60
2020/12/02 01:28:59;;;;;;;15.10;9.78;;;;;;;3.70;66.89;101845.45;1724659;82;21188;-60
2020/12/02 01:32:05;;;;;;;18.70;9.93;;;;;;;3.69;66.96;101842.36;1740158;82;21225;-59
2020/12/02 01:35:12;;;;;;;16.15;9.98;;;;;;;3.74;66.94;101835.30;1676174;85;21387;-59
2020/12/02 01:38:17;;;;;;;17.80;10.20;;;;;;;3.59;66.53;101833.53;1661708;85;21244;-59
2020/12/02 01:41:21;;;;;;;16.90;10.28;;;;;;;3.55;66.89;101834.20;1689274;84;21375;-59
2020/12/02 01:44:27;;;;;;;16.52;9.43;;;;;;;3.59;66.95;101837.13;1676181;85;21414;-59
2020/12/02 01:47:53;;;;;;;14.78;8.63;;;;;;;3.58;66.94;101829.98;1674497;85;21522;-60
2020/12/02 01:51:28;;;;;;;14.55;8.80;;;;;;;3.65;66.80;101829.97;1661591;85;21233;-60
2020/12/02 01:54:44;;;;;;;16.12;8.90;;;;;;;3.65;66.64;101823.20;1679504;85;21228;-59
2020/12/02 01:57:49;;;;;;;13.32;8.30;;;;;;;3.67;66.56;101825.33;1679619;85;21320;-59
2020/12/02 02:01:01;;;;;;;15.25;8.90;;;;;;;3.71;66.52;101827.37;1679583;85;21220;-59
2020/12/02 02:04:06;;;;;;;14.58;8.23;;;;;;;3.66;66.33;101816.83;1679647;85;21273;-59
2020/12/02 02:07:17;;;;;;;16.37;9.13;;;;;;;3.65;66.52;101818.25;1669494;85;21677;-59
2020/12/02 02:10:31;;;;;;;17.30;9.28;;;;;;;3.61;66.57;101817.60;1654601;86;21355;-59
2020/12/02 02:14:17;;;;;;;15.90;9.18;;;;;;;3.63;66.70;101819.70;1665914;85;21264;-59
2020/12/02 02:17:22;;;;;;;12.45;8.05;;;;;;;3.63;66.53;101817.00;1667861;86;21260;-59
2020/12/02 02:20:27;;;;;;;15.75;8.70;;;;;;;3.68;66.65;101813.52;1727969;83;21363;-60
2020/12/02 02:23:33;;;;;;;13.70;8.53;;;;;;;3.74;66.56;101813.13;1728003;83;21522;-59
2020/12/02 02:26:54;;;;;;;16.55;9.60;;;;;;;3.77;66.34;101821.08;1728024;83;21371;-59
2020/12/02 02:30:00;;;;;;;17.40;9.40;;;;;;;3.79;66.18;101815.06;1728113;83;21268;-60
2020/12/02 02:33:07;;;;;;;15.08;8.90;;;;;;;3.70;66.11;101824.25;1649953;87;21204;-59
2020/12/02 02:36:21;;;;;;;15.95;9.35;;;;;;;3.62;66.21;101822.04;1670082;86;21248;-59
2020/12/02 02:39:26;;;;;;;12.15;7.97;;;;;;;3.64;66.33;101824.17;1728019;83;21240;-60
2020/12/02 02:42:49;;;;;;;15.03;9.00;;;;;;;3.65;66.27;101831.31;1728009;83;21680;-60
2020/12/02 02:45:54;;;;;;;13.22;8.38;;;;;;;3.57;65.96;101828.22;1651021;86;21229;-59
2020/12/02 02:49:01;;;;;;;14.15;8.30;;;;;;;3.50;66.28;101828.23;1670213;86;21360;-60
2020/12/02 02:52:06;;;;;;;12.98;8.73;;;;;;;3.53;66.44;101829.39;1653054;87;21250;-59
2020/12/02 02:55:12;;;;;;;18.35;9.78;;;;;;;3.48;66.48;101833.34;1727872;83;21345;-58
2020/12/02 02:58:18;;;;;;;14.33;9.05;;;;;;;3.49;66.63;101835.09;1728066;83;21699;-59
2020/12/02 03:01:23;;;;;;;17.70;9.88;;;;;;;3.50;66.66;101833.65;1728052;83;21410;-60
2020/12/02 03:04:30;;;;;;;16.27;8.65;;;;;;;3.48;66.67;101838.28;1727975;83;21201;-60
2020/12/02 03:07:37;;;;;;;12.20;8.53;;;;;;;3.50;66.65;101844.95;1719318;83;21415;-60
2020/12/02 03:10:45;;;;;;;16.42;8.58;;;;;;;3.47;66.73;101843.79;1712606;83;21331;-60
2020/12/02 03:13:59;;;;;;;14.95;9.23;;;;;;;3.48;66.82;101846.40;1708492;83;21355;-59
2020/12/02 03:17:05;;;;;;;13.98;8.65;;;;;;;3.44;66.82;101842.63;1706507;84;21260;-59
2020/12/02 03:20:33;;;;;;;12.65;8.30;;;;;;;3.38;67.11;101849.78;1706213;84;21414;-59
2020/12/02 03:23:38;;;;;;;11.55;7.50;;;;;;;3.37;67.63;101848.02;1754647;81;21196;-60
2020/12/02 03:26:45;;;;;;;14.40;8.50;;;;;;;3.37;67.64;101847.55;1754554;82;21204;-60
2020/12/02 03:29:51;;;;;;;15.58;8.25;;;;;;;3.37;67.97;101859.73;1754568;82;21192;-59
2020/12/02 03:32:57;;;;;;;11.83;8.15;;;;;;;3.43;68.09;101849.88;1754504;82;21323;-59
2020/12/02 03:36:02;;;;;;;13.65;8.10;;;;;;;3.44;68.10;101854.81;1754553;82;21292;-59
2020/12/02 03:39:09;;;;;;;10.45;6.75;;;;;;;3.47;68.14;101844.67;1754544;82;21188;-59
2020/12/02 03:42:15;;;;;;;10.78;7.22;;;;;;;3.47;68.04;101856.85;1754363;82;21710;-59
2020/12/02 03:45:21;;;;;;;11.60;7.47;;;;;;;3.38;68.25;101855.20;1754517;82;21273;-58
2020/12/02 03:48:27;;;;;;;11.12;7.15;;;;;;;3.42;68.44;101863.03;1754403;82;21371;-58
2020/12/02 03:51:35;;;;;;;15.58;8.38;;;;;;;3.50;68.49;101858.02;1754560;82;21227;-58
2020/12/02 03:54:41;;;;;;;12.88;7.90;;;;;;;3.52;68.27;101859.27;1754532;82;21354;-58
2020/12/02 03:57:47;;;;;;;13.20;8.70;;;;;;;3.54;68.37;101857.31;1754400;82;21240;-59
2020/12/02 04:00:54;;;;;;;9.60;6.67;;;;;;;3.58;68.39;101860.23;1754541;82;21219;-57
2020/12/02 04:04:01;;;;;;;8.73;6.50;;;;;;;3.59;68.40;101856.55;1754565;82;21208;-57
2020/12/02 04:07:06;;;;;;;13.35;6.90;;;;;;;3.53;68.12;101852.41;1749249;82;21322;-56
2020/12/02 04:10:13;;;;;;;9.80;6.62;;;;;;;3.50;68.29;101859.36;1739379;82;21372;-57
2020/12/02 04:13:20;;;;;;;10.80;7.33;;;;;;;3.53;68.25;101860.52;1739439;82;21341;-57
2020/12/02 04:16:29;;;;;;;10.65;7.05;;;;;;;3.50;67.95;101863.90;1743488;82;21227;-58
2020/12/02 04:19:36;;;;;;;11.30;7.45;;;;;;;3.27;68.14;101863.95;1706182;84;21354;-58
2020/12/02 04:22:41;;;;;;;11.35;6.70;;;;;;;3.19;68.31;101865.40;1675226;85;21224;-58
2020/12/02 04:25:47;;;;;;;10.10;6.97;;;;;;;3.15;68.73;101870.59;1706095;84;21435;-58
2020/12/02 04:28:52;;;;;;;9.63;7.45;;;;;;;3.20;68.68;101873.42;1676336;85;21248;-58
2020/12/02 04:31:59;;;;;;;8.78;6.35;;;;;;;3.26;68.56;101868.98;1706159;84;21362;-57
2020/12/02 04:35:04;;;;;;;9.55;6.97;;;;;;;3.32;68.43;101874.02;1676020;85;21252;-58
2020/12/02 04:38:09;;;;;;;9.70;6.62;;;;;;;3.38;68.32;101874.98;1706166;84;21236;-58
2020/12/02 04:41:24;;;;;;;10.98;7.37;;;;;;;3.31;67.90;101873.64;1672735;85;21227;-58
2020/12/02 04:44:29;;;;;;;8.98;6.12;;;;;;;3.21;68.15;101876.50;1706243;84;21339;-58
2020/12/02 04:47:46;;;;;;;11.35;7.40;;;;;;;3.22;68.15;101870.12;1674670;85;21217;-58
2020/12/02 04:50:52;;;;;;;10.82;7.22;;;;;;;3.13;68.13;101876.09;1706042;84;21366;-58
2020/12/02 04:53:59;;;;;;;11.63;7.22;;;;;;;3.04;68.12;101883.41;1674936;85;21193;-58
2020/12/02 04:57:05;;;;;;;10.30;6.92;;;;;;;2.94;68.40;101886.27;1706163;84;21425;-58
2020/12/02 05:00:32;;;;;;;10.70;6.62;;;;;;;2.97;68.64;101885.61;1673652;85;21242;-58
2020/12/02 05:03:40;;;;;;;11.33;8.20;;;;;;;3.06;68.75;101889.58;1706100;84;21204;-57
2020/12/02 05:06:48;;;;;;;12.43;7.75;;;;;;;3.02;68.42;101889.39;1681945;84;21717;-58
2020/12/02 05:10:22;;;;;;;10.53;7.00;;;;;;;3.04;68.57;101894.23;1707226;84;21345;-57
2020/12/02 05:13:27;;;;;;;10.98;6.78;;;;;;;3.10;68.36;101893.86;1707247;84;21221;-58
2020/12/02 05:16:33;;;;;;;10.68;6.83;;;;;;;3.09;67.96;101895.69;1724039;82;21328;-58
2020/12/02 05:19:38;;;;;;;9.98;6.60;;;;;;;3.08;67.98;101892.61;1722990;83;21328;-57
2020/12/02 05:22:53;;;;;;;12.13;7.05;;;;;;;3.15;67.90;101893.11;1762226;81;21287;-57
2020/12/02 05:25:57;;;;;;;;;;;;;;;3.18;67.40;101893.40;1765019;81;21515;-58
2020/12/02 05:29:03;;;;;;;14.23;8.60;;;;;;;3.12;67.20;101900.06;1762137;81;20215;-57
2020/12/02 05:32:20;;;;;;;14.53;9.65;;;;;;;3.06;67.13;101907.16;1761815;81;21398;-57
2020/12/02 05:35:30;;;;;;;34.65;19.60;;;;;;;3.06;67.23;101907.16;1723092;83;21419;-57
2020/12/02 05:38:44;;;;;;;37.35;20.92;;;;;;;3.13;67.21;101912.62;1672122;84;21398;-57
2020/12/02 05:41:51;;;;;;;60.10;30.02;;;;;;;3.06;66.76;101916.63;1662549;84;22243;-58
2020/12/02 05:44:57;;;;;;;53.33;26.50;;;;;;;2.99;66.93;101913.92;1662249;84;21435;-58
2020/12/02 05:48:02;;;;;;;31.25;18.05;;;;;;;2.97;66.98;101919.89;1638091;87;21288;-57
2020/12/02 05:51:07;;;;;;;32.25;14.10;;;;;;;3.00;67.00;101930.06;1715844;81;21841;-57
2020/12/02 05:54:19;;;;;;;70.55;30.68;;;;;;;3.03;66.95;101934.40;1731141;82;21370;-57
2020/12/02 05:57:24;;;;;;;56.60;27.52;;;;;;;3.07;66.87;101929.22;1717774;83;21827;-57
2020/12/02 06:00:31;;;;;;;39.42;19.60;;;;;;;2.94;66.86;101933.59;1728363;81;21369;-57
2020/12/02 06:03:40;;;;;;;28.20;14.45;;;;;;;2.80;66.94;101937.59;1752517;81;21266;-57
2020/12/02 06:06:45;;;;;;;22.32;10.90;;;;;;;2.79;67.41;101946.17;1750509;81;21235;-57
2020/12/02 06:09:58;;;;;;;27.60;14.50;;;;;;;2.86;67.27;101943.98;1731011;81;21393;-58
2020/12/02 06:13:03;;;;;;;23.70;12.45;;;;;;;2.77;67.08;101950.82;1758184;81;21343;-57
2020/12/02 06:16:09;;;;;;;21.27;11.88;;;;;;;2.72;67.16;101951.56;1754601;81;22020;-57
2020/12/02 06:19:34;;;;;;;27.77;11.97;;;;;;;2.64;67.51;101952.94;1701228;84;21215;-58
2020/12/02 06:23:04;;;;;;;26.48;15.70;;;;;;;2.69;67.61;101954.44;1704617;84;21227;-59
2020/12/02 06:26:09;;;;;;;42.25;18.70;;;;;;;2.74;67.65;101956.88;1698499;84;21235;-58
2020/12/02 06:29:16;;;;;;;51.02;21.70;;;;;;;2.84;67.67;101963.48;1661177;86;21443;-58
2020/12/02 06:32:26;;;;;;;21.20;10.80;;;;;;;2.88;67.25;101960.53;1693833;84;21725;-57
2020/12/02 06:35:31;;;;;;;29.18;13.08;;;;;;;2.88;67.11;101967.30;1702044;82;21282;-57
2020/12/02 06:38:37;;;;;;;27.87;14.95;;;;;;;2.93;67.02;101961.63;1701032;84;21318;-58
2020/12/02 06:41:48;;;;;;;32.83;18.45;;;;;;;2.96;66.80;101962.79;1699232;84;21221;-58
2020/12/02 06:45:25;;;;;;;34.50;20.68;;;;;;;2.85;66.94;101964.73;1703172;84;21341;-58
2020/12/02 06:48:39;;;;;;;47.20;25.50;;;;;;;2.84;66.90;101963.48;1693628;84;21342;-58
2020/12/02 06:51:44;;;;;;;21.05;12.43;;;;;;;2.85;67.01;101961.19;1700539;82;21216;-57
2020/12/02 06:54:50;;;;;;;20.45;13.32;;;;;;;2.83;67.02;101976.63;1700326;83;21343;-59
2020/12/02 06:58:02;;;;;;;28.70;17.17;;;;;;;2.85;67.18;101970.65;1702651;83;21746;-58
2020/12/02 07:01:15;;;;;;;24.32;12.78;;;;;;;2.92;67.19;101968.84;1705277;82;21819;-58
2020/12/02 07:04:27;;;;;;;21.65;13.32;;;;;;;3.00;67.10;101981.45;1651185;85;21406;-57
2020/12/02 07:07:32;;;;;;;40.20;26.93;;;;;;;3.01;66.88;101977.77;1670289;84;21240;-58
2020/12/02 07:10:36;;;;;;;24.05;14.45;;;;;;;3.04;66.92;101974.89;1674535;84;21268;-57
2020/12/02 07:13:44;;;;;;;22.07;12.63;;;;;;;3.07;66.83;101972.50;1668969;86;21379;-57
2020/12/02 07:16:49;;;;;;;20.37;13.03;;;;;;;3.05;66.57;101986.59;1686904;84;21462;-59
2020/12/02 07:19:55;;;;;;;28.73;16.07;;;;;;;3.01;66.46;101994.51;1765816;79;21375;-58
2020/12/02 07:23:02;;;;;;;30.70;18.00;;;;;;;3.01;66.56;101997.21;1767247;81;21362;-58
2020/12/02 07:26:08;;;;;;;33.15;18.20;;;;;;;2.98;66.58;101994.69;1766159;79;21397;-57
2020/12/02 07:29:27;;;;;;;18.07;11.60;;;;;;;3.01;66.67;101998.06;1766134;81;21374;-57
2020/12/02 07:32:33;;;;;;;21.40;13.18;;;;;;;3.06;66.50;101997.79;1766128;81;21208;-58
2020/12/02 07:35:37;;;;;;;36.73;25.30;;;;;;;3.09;66.42;101992.23;1766510;79;21893;-57
2020/12/02 07:38:44;;;;;;;25.85;16.70;;;;;;;3.13;66.31;101995.61;1765499;81;21872;-59
2020/12/02 07:41:59;;;;;;;26.75;17.05;;;;;;;3.09;66.04;101990.38;1755767;79;21340;-58
2020/12/02 07:45:25;;;;;;;22.02;12.40;;;;;;;3.09;66.21;102001.70;1765872;79;21350;-58
2020/12/02 07:48:36;;;;;;;18.98;11.57;;;;;;;3.05;66.17;102001.47;1766251;81;21326;-58
2020/12/02 07:51:45;;;;;;;23.15;13.15;;;;;;;3.07;66.23;102004.97;1766343;79;21354;-57
2020/12/02 07:54:51;;;;;;;18.42;12.53;;;;;;;3.14;66.11;102009.04;1764514;81;21714;-56
2020/12/02 07:57:58;;;;;;;30.27;15.90;;;;;;;3.19;65.95;102008.80;1763044;81;21358;-58
2020/12/02 08:01:04;;;;;;;22.25;14.98;;;;;;;3.18;65.70;102002.52;1754116;79;21331;-57
2020/12/02 08:04:41;;;;;;;32.98;18.57;;;;;;;3.13;65.48;102010.02;1736248;82;21321;-59
2020/12/02 08:08:06;;;;;;;28.73;15.25;;;;;;;3.03;65.45;102009.67;1739100;81;21403;-57
2020/12/02 08:11:25;;;;;;;23.73;13.45;;;;;;;3.03;65.46;102007.44;1766653;79;21389;-57
2020/12/02 08:14:40;;;;;;;23.60;13.90;;;;;;;2.97;65.82;102001.03;1766892;81;21888;-57
2020/12/02 08:17:49;;;;;;;21.97;13.25;;;;;;;3.02;65.98;102008.41;1747561;81;21774;-58
2020/12/02 08:20:56;;;;;;;23.45;14.85;;;;;;;3.08;65.88;102009.91;1738212;81;21366;-55
2020/12/02 08:24:33;;;;;;;26.35;13.78;;;;;;;3.08;65.81;102005.34;1735853;82;21362;-56
2020/12/02 08:27:42;;;;;;;27.48;14.95;;;;;;;3.09;65.81;102014.73;1742289;81;21369;-55
2020/12/02 08:31:01;;;;;;;29.45;15.68;;;;;;;3.06;65.46;102009.49;1758104;81;21237;-55
2020/12/02 08:34:32;;;;;;;25.20;13.75;;;;;;;2.97;65.62;102003.73;1716031;82;21851;-57
2020/12/02 08:37:45;;;;;;;42.38;24.25;;;;;;;3.02;65.75;102001.65;1734305;81;21421;-56
2020/12/02 08:40:55;;;;;;;31.70;19.70;;;;;;;2.96;65.52;101997.95;1737799;81;21363;-56
2020/12/02 08:44:20;;;;;;;35.83;23.75;;;;;;;2.92;65.51;101993.66;1749826;81;21342;-56
2020/12/02 08:47:31;;;;;;;27.30;16.93;;;;;;;2.93;65.65;101998.13;1744401;81;21789;-57
2020/12/02 08:50:38;;;;;;;25.17;15.78;;;;;;;2.97;65.63;101995.63;1757555;80;21410;-56
2020/12/02 08:53:48;;;;;;;21.40;13.22;;;;;;;2.99;65.56;101993.72;1753570;81;21837;-56
2020/12/02 08:56:56;;;;;;;24.23;14.20;;;;;;;3.04;65.25;101992.47;1750658;81;21213;-56
2020/12/02 09:00:05;;;;;;;24.75;14.03;;;;;;;3.08;65.15;101985.94;1721039;83;21244;-55
2020/12/02 09:03:11;;;;;;;24.32;16.35;;;;;;;3.15;64.84;101988.28;1759789;81;21355;-55
2020/12/02 09:06:23;;;;;;;25.52;15.08;;;;;;;3.18;64.74;101991.69;1760710;79;21355;-56
2020/12/02 09:09:30;;;;;;;21.55;13.00;;;;;;;3.15;64.64;101995.92;1752650;81;21351;-54
2020/12/02 09:12:36;;;;;;;22.37;13.45;;;;;;;3.07;64.21;101994.14;1756058;81;21290;-55
2020/12/02 09:15:43;;;;;;;22.67;13.48;;;;;;;3.00;64.32;101996.33;1745587;81;21346;-55
2020/12/02 09:18:49;;;;;;;25.72;15.90;;;;;;;3.01;64.26;101994.51;1766137;81;21516;-55
2020/12/02 09:21:58;;;;;;;26.02;16.23;;;;;;;3.00;64.11;101995.45;1754378;79;21228;-54
2020/12/02 09:25:16;;;;;;;23.18;14.68;;;;;;;3.01;64.20;101993.16;1744428;81;21947;-55
2020/12/02 09:28:26;;;;;;;26.40;15.35;;;;;;;2.98;63.83;101985.22;1751823;81;21216;-55
2020/12/02 09:31:32;;;;;;;21.60;13.53;;;;;;;2.97;64.17;101990.22;1736149;81;21202;-55
2020/12/02 09:34:37;;;;;;;23.50;14.65;;;;;;;2.99;64.21;101985.59;1740061;81;21258;-56
2020/12/02 09:37:42;;;;;;;84.77;65.40;;;;;;;3.08;64.07;101980.15;1736175;81;21263;-55
2020/12/02 09:40:49;;;;;;;60.52;43.02;;;;;;;3.18;63.89;101978.63;1731277;81;21388;-54
2020/12/02 09:44:34;;;;;;;25.23;15.05;;;;;;;3.26;63.77;101977.23;1735964;82;21354;-55
2020/12/02 09:47:44;;;;;;;24.77;15.32;;;;;;;3.31;63.57;101976.95;1720945;81;21204;-55
2020/12/02 09:50:48;;;;;;;25.82;15.18;;;;;;;3.39;63.47;101974.19;1753321;81;21220;-56
2020/12/02 09:53:56;;;;;;;23.47;14.60;;;;;;;3.46;63.39;101979.61;1730618;83;21228;-56
2020/12/02 09:57:03;;;;;;;24.77;14.80;;;;;;;3.53;63.19;101980.12;1730874;81;21919;-56
2020/12/02 10:00:08;;;;;;;24.23;13.68;;;;;;;3.61;62.84;101976.00;1731816;81;21814;-56
2020/12/02 10:03:40;;;;;;;32.67;18.02;;;;;;;3.65;62.58;101974.83;1731711;81;21840;-56
2020/12/02 10:07:02;;;;;;;28.00;16.62;;;;;;;3.69;62.47;101979.11;1749326;81;21260;-56
2020/12/02 10:10:23;;;;;;;23.40;14.33;;;;;;;3.67;62.38;101972.91;1703803;84;21197;-56
2020/12/02 10:13:59;;;;;;;25.30;14.58;;;;;;;3.58;62.31;101962.65;1704282;84;21247;-55
2020/12/02 10:17:25;;;;;;;24.87;15.90;;;;;;;3.60;62.42;101959.34;1704104;84;21267;-56
2020/12/02 10:20:56;;;;;;;40.50;20.97;;;;;;;3.62;62.17;101956.06;1704143;84;21233;-56
2020/12/02 10:24:07;;;;;;;33.33;20.97;;;;;;;3.56;62.06;101963.21;1711498;83;21271;-56
2020/12/02 10:27:46;;;;;;;25.45;16.57;;;;;;;3.50;62.16;101953.23;1709844;83;21323;-56
2020/12/02 10:31:11;;;;;;;29.95;17.02;;;;;;;3.45;62.08;101949.92;1712630;83;21897;-55
2020/12/02 10:34:34;;;;;;;28.00;15.50;;;;;;;3.48;62.13;101952.45;1711137;82;21249;-56
2020/12/02 10:37:46;;;;;;;28.98;17.60;;;;;;;3.51;61.99;101955.84;1721716;81;21690;-55
2020/12/02 10:40:57;;;;;;;;;;;;;;;3.58;61.86;101961.30;1730177;83;21940;-56
2020/12/02 10:44:17;;;;;;;25.57;14.78;;;;;;;3.47;61.87;101952.07;1734557;82;20206;-55
2020/12/02 10:48:05;;;;;;;29.20;15.85;;;;;;;3.48;62.19;101950.62;1742838;81;21331;-55
2020/12/02 10:51:18;;;;;;;27.87;16.23;;;;;;;3.48;62.27;101949.27;1744869;81;21204;-56
2020/12/02 10:54:25;;;;;;;35.05;19.05;;;;;;;3.53;62.46;101949.86;1733066;81;21311;-56
2020/12/02 10:57:35;;;;;;;31.33;18.95;;;;;;;3.51;62.03;101949.08;1753058;81;21820;-56
2020/12/02 11:00:44;;;;;;;32.05;18.98;;;;;;;3.50;62.08;101946.47;1743096;81;21901;-56
2020/12/02 11:03:56;;;;;;;29.77;15.95;;;;;;;3.51;61.97;101949.08;1741269;82;21389;-56
2020/12/02 11:07:12;;;;;;;31.87;17.10;;;;;;;3.53;61.85;101949.86;1740640;81;21185;-58
2020/12/02 11:10:42;;;;;;;22.50;12.73;;;;;;;3.52;61.60;101946.75;1752603;79;21239;-57
2020/12/02 11:14:01;;;;;;;22.00;14.25;;;;;;;3.53;61.45;101942.22;1766546;81;21240;-59
2020/12/02 11:17:35;;;;;;;25.70;14.80;;;;;;;3.53;61.40;101936.80;1756043;80;21697;-58
2020/12/02 11:21:02;;;;;;;23.02;14.10;;;;;;;3.55;61.52;101936.23;1758147;81;21260;-57
2020/12/02 11:24:42;;;;;;;26.20;14.60;;;;;;;3.56;61.52;101935.26;1761212;81;21718;-57
2020/12/02 11:27:50;;;;;;;22.40;12.45;;;;;;;3.54;61.54;101936.70;1758295;81;21193;-58
2020/12/02 11:30:57;;;;;;;44.00;27.58;;;;;;;3.57;61.69;101941.93;1703037;83;21366;-60
2020/12/02 11:34:32;;;;;;;32.03;21.00;;;;;;;3.43;61.60;101942.37;1745216;80;21196;-60
2020/12/02 11:38:02;;;;;;;;;;;;;;;3.43;61.81;101948.67;1743104;81;21374;-61
2020/12/02 11:41:49;;;;;;;23.50;13.35;;;;;;;3.44;61.78;101949.55;1744074;81;20356;-61
2020/12/02 11:45:13;;;;;;;23.15;14.70;;;;;;;3.46;61.87;101952.54;1746689;81;21285;-60
2020/12/02 11:48:40;;;;;;;25.30;15.05;;;;;;;3.47;61.84;101957.48;1724887;81;22090;-59
2020/12/02 11:52:14;;;;;;;31.70;14.50;;;;;;;3.41;61.94;101957.35;1711622;81;21701;-60
2020/12/02 11:55:21;;;;;;;30.12;16.10;;;;;;;3.34;61.98;101946.52;1711385;82;21755;-60
2020/12/02 11:58:27;;;;;;;27.60;15.65;;;;;;;3.28;62.03;101952.78;1712782;83;21187;-59
2020/12/02 12:01:58;;;;;;;27.15;16.20;;;;;;;3.29;61.89;101952.69;1712718;82;21227;-59
2020/12/02 12:05:15;;;;;;;29.87;15.65;;;;;;;3.25;62.21;101944.84;1688992;83;21684;-59
2020/12/02 12:08:41;;;;;;;30.48;17.10;;;;;;;3.28;62.14;101946.90;1751350;81;21426;-61
2020/12/02 12:11:49;;;;;;;29.75;16.35;;;;;;;3.20;62.27;101950.54;1755393;81;21589;-60
2020/12/02 12:15:52;;;;;;;23.60;13.95;;;;;;;3.23;62.16;101946.30;1757490;79;21205;-58
2020/12/02 12:19:55;;;;;;;29.05;14.58;;;;;;;3.17;62.07;101946.66;1740121;82;21750;-58
2020/12/02 12:23:28;;;;;;;28.55;15.88;;;;;;;3.19;62.09;101936.59;1747736;81;21882;-59
2020/12/02 12:26:41;;;;;;;30.52;17.55;;;;;;;3.25;62.10;101943.50;1753294;81;21607;-58
2020/12/02 12:29:49;;;;;;;29.45;16.65;;;;;;;3.25;62.04;101941.64;1751243;80;21367;-60
2020/12/02 12:33:19;;;;;;;30.75;17.62;;;;;;;3.22;62.05;101948.59;1754390;81;21538;-60
2020/12/02 12:36:52;;;;;;;32.85;17.95;;;;;;;3.21;61.99;101952.73;1738415;81;21387;-60
2020/12/02 12:40:36;;;;;;;33.15;18.10;;;;;;;3.24;62.11;101954.78;1852598;76;22373;-59
2020/12/02 12:44:33;;;;;;;33.60;17.73;;;;;;;3.24;62.07;101964.27;1845821;76;22235;-55
2020/12/02 12:48:05;;;;;;;34.13;16.97;;;;;;;3.19;62.08;101969.57;1756840;81;21214;-59
2020/12/02 13:02:06;;;;;;;35.88;22.55;;;;;;;2.88;62.86;101971.83;1875383;74;27968;-57
2020/12/02 13:05:18;;;;;;;37.13;21.82;;;;;;;2.88;62.78;101972.70;1855416;77;21553;-58
2020/12/02 13:08:31;;;;;;;32.60;17.73;;;;;;;2.87;62.92;101980.41;1839199;77;21311;-57
2020/12/02 13:12:21;;;;;;;34.00;17.90;;;;;;;2.88;63.20;101975.41;1812281;77;21178;-58
2020/12/02 13:15:43;;;;;;;39.38;17.73;;;;;;;2.97;63.31;101988.86;1810996;79;21454;-57
2020/12/02 13:19:22;;;;;;;32.73;17.85;;;;;;;3.00;63.14;101985.51;1809961;79;21221;-57
2020/12/02 13:23:19;;;;;;;31.48;17.20;;;;;;;3.00;63.04;101982.80;1767236;80;21390;-57
2020/12/02 13:26:30;;;;;;;30.50;16.53;;;;;;;2.99;63.14;101989.66;1812461;78;21253;-57
2020/12/02 13:29:48;;;;;;;34.23;18.77;;;;;;;3.03;63.15;101995.27;1832900;78;21765;-57
2020/12/02 13:33:12;;;;;;;33.92;17.92;;;;;;;3.04;63.15;101995.17;1844762;77;21209;-59
2020/12/02 13:36:33;;;;;;;48.33;27.52;;;;;;;3.06;63.00;101991.03;1812492;78;21386;-58
2020/12/02 13:39:44;;;;;;;33.90;19.37;;;;;;;3.05;62.98;101976.66;1822201;77;21358;-56
2020/12/02 13:42:53;;;;;;;36.03;18.25;;;;;;;3.08;63.04;101974.23;1850142;77;21346;-58
2020/12/02 13:46:04;;;;;;;32.17;17.00;;;;;;;3.11;62.84;101974.05;1769946;79;21252;-59
2020/12/02 13:49:16;;;;;;;39.13;19.50;;;;;;;3.08;62.83;101969.70;1825600;78;21192;-59
2020/12/02 13:52:48;;;;;;;41.88;18.65;;;;;;;3.03;62.79;101973.63;1809397;79;21274;-59
2020/12/02 13:56:14;;;;;;;37.70;18.48;;;;;;;3.01;62.89;101971.01;1808873;79;21819;-60
2020/12/02 13:59:40;;;;;;;32.63;18.15;;;;;;;3.03;62.92;101973.63;1811209;79;21204;-60
2020/12/02 14:03:39;;;;;;;35.03;18.32;;;;;;;2.98;62.78;101978.45;1828927;76;21173;-57
2020/12/02 14:07:19;;;;;;;39.42;20.43;;;;;;;2.92;62.89;101976.08;1823251;77;21217;-60
2020/12/02 14:10:47;;;;;;;36.55;18.92;;;;;;;2.83;63.18;101980.67;1834950;78;21198;-59
2020/12/02 14:14:18;;;;;;;40.23;19.23;;;;;;;2.80;63.45;101982.20;1835744;77;21205;-58
2020/12/02 14:18:08;;;;;;;41.73;18.87;;;;;;;2.76;63.51;101977.91;1809142;77;21209;-59
2020/12/02 14:21:42;;;;;;;98.65;61.02;;;;;;;2.76;63.98;101973.86;1804883;79;21540;-59
2020/12/02 14:24:55;;;;;;;36.85;21.07;;;;;;;2.82;63.95;101971.68;1837997;78;21324;-59
2020/12/02 14:28:04;;;;;;;37.20;20.32;;;;;;;2.86;63.87;101972.38;1822770;78;21335;-59
2020/12/02 14:31:19;;;;;;;41.25;21.55;;;;;;;2.90;63.83;101968.06;1808184;78;21303;-60
2020/12/02 14:34:37;;;;;;;38.33;19.48;;;;;;;2.82;63.60;101962.72;1804573;79;21718;-60
2020/12/02 14:37:43;;;;;;;40.38;20.68;;;;;;;2.76;63.98;101961.69;1814840;78;21209;-59
2020/12/02 14:40:49;;;;;;;42.08;20.35;;;;;;;2.76;64.16;101973.86;1809824;78;21346;-61
2020/12/02 14:43:57;;;;;;;39.63;21.20;;;;;;;2.80;64.18;101975.45;1819394;78;21383;-60
2020/12/02 14:47:15;;;;;;;40.12;20.85;;;;;;;2.84;64.21;101972.95;1795664;78;21342;-60
2020/12/02 14:50:23;;;;;;;39.90;20.23;;;;;;;2.85;64.21;101968.80;1823038;77;21446;-59
2020/12/02 14:53:31;;;;;;;40.23;21.05;;;;;;;2.89;64.17;101975.79;1762949;80;21200;-59
2020/12/02 14:56:47;;;;;;;38.25;21.93;;;;;;;2.92;64.15;101976.08;1827313;77;21182;-60
2020/12/02 15:00:18;;;;;;;43.87;23.12;;;;;;;2.92;63.99;101981.49;1816195;78;21346;-60
2020/12/02 15:03:33;;;;;;;39.73;19.60;;;;;;;2.85;64.03;101978.77;1828096;77;21401;-59
2020/12/02 15:07:10;;;;;;;46.28;24.35;;;;;;;2.92;63.84;101985.55;1803441;76;22800;-59